createdAt,value
2023-02-17T00:00:35.841Z,32.17
2023-02-17T00:03:02.948Z,30.97
2023-02-17T00:05:29.726Z,30.87
2023-02-17T00:07:56.854Z,29.10
2023-02-17T00:10:23.631Z,30.70
2023-02-17T00:12:50.481Z,30.37
2023-02-17T00:15:18.633Z,29.10
2023-02-17T00:17:45.754Z,29.57
2023-02-17T00:20:12.932Z,29.47
2023-02-17T00:22:39.828Z,29.70
2023-02-17T00:25:07.047Z,29.27
2023-02-17T00:27:34.210Z,26.03
2023-02-17T00:30:01.052Z,25.17
2023-02-17T00:32:29.550Z,26.93
2023-02-17T00:34:58.340Z,26.23
2023-02-17T00:37:25.388Z,27.97
2023-02-17T00:39:52.195Z,27.90
2023-02-17T00:42:19.356Z,24.27
2023-02-17T00:44:46.113Z,23.60
2023-02-17T00:47:13.339Z,26.73
2023-02-17T00:49:41.523Z,24.73
2023-02-17T00:52:08.828Z,26.93
2023-02-17T00:54:35.708Z,25.00
2023-02-17T00:57:02.762Z,27.03
2023-02-17T00:59:29.992Z,25.13
2023-02-17T01:01:57.058Z,24.33
2023-02-17T01:04:23.963Z,25.90
2023-02-17T01:06:52.485Z,26.00
2023-02-17T01:09:19.307Z,27.70
2023-02-17T01:11:46.460Z,26.70
2023-02-17T01:14:13.941Z,26.90
2023-02-17T01:16:45.204Z,25.90
2023-02-17T01:19:13.669Z,28.00
2023-02-17T01:21:41.574Z,24.70
2023-02-17T01:24:11.462Z,26.77
2023-02-17T01:26:40.884Z,25.73
2023-02-17T01:29:08.757Z,19.23
2023-02-17T01:31:36.239Z,26.17
2023-02-17T01:34:04.794Z,26.50
2023-02-17T01:36:32.922Z,26.53
2023-02-17T01:39:00.383Z,26.33
2023-02-17T01:41:29.186Z,25.33
2023-02-17T01:44:08.467Z,25.67
2023-02-17T01:46:36.915Z,24.20
2023-02-17T01:49:07.241Z,26.90
2023-02-17T01:51:36.127Z,23.43
2023-02-17T01:54:08.938Z,24.60
2023-02-17T01:56:41.901Z,25.80
2023-02-17T01:59:13.776Z,26.90
2023-02-17T02:01:41.010Z,24.37
2023-02-17T02:04:09.421Z,24.07
2023-02-17T02:06:40.969Z,25.00
2023-02-17T02:09:10.984Z,24.37
2023-02-17T02:11:39.543Z,24.40
2023-02-17T02:14:08.416Z,24.13
2023-02-17T02:16:45.081Z,23.70
2023-02-17T02:19:34.766Z,23.73
2023-02-17T02:22:31.629Z,22.40
2023-02-17T02:25:09.077Z,22.03
2023-02-17T02:27:58.765Z,23.20
2023-02-17T02:30:52.611Z,22.27
2023-02-17T02:33:32.413Z,22.50
2023-02-17T02:36:05.718Z,23.20
2023-02-17T02:38:39.393Z,22.90
2023-02-17T02:41:11.712Z,23.30
2023-02-17T02:43:39.006Z,22.40
2023-02-17T02:46:06.766Z,24.70
2023-02-17T02:48:35.592Z,24.97
2023-02-17T02:51:23.976Z,25.20
2023-02-17T02:54:22.046Z,24.43
2023-02-17T02:57:04.026Z,23.93
2023-02-17T02:59:44.313Z,24.70
2023-02-17T03:02:18.302Z,24.67
2023-02-17T03:04:52.151Z,23.03
2023-02-17T03:07:22.883Z,23.43
2023-02-17T03:09:51.726Z,22.83
2023-02-17T03:12:18.799Z,23.27
2023-02-17T03:14:48.031Z,22.77
2023-02-17T03:17:15.248Z,21.00
2023-02-17T03:19:45.458Z,23.40
2023-02-17T03:22:20.161Z,21.57
2023-02-17T03:24:47.185Z,23.73
2023-02-17T03:27:14.458Z,22.90
2023-02-17T03:29:42.788Z,22.40
2023-02-17T03:32:09.927Z,22.93
2023-02-17T03:34:36.968Z,23.47
2023-02-17T03:37:04.286Z,22.80
2023-02-17T03:39:32.433Z,21.13
2023-02-17T03:41:59.243Z,22.20
2023-02-17T03:44:26.139Z,21.27
2023-02-17T03:46:53.544Z,21.03
2023-02-17T03:49:20.688Z,22.17
2023-02-17T03:51:48.010Z,21.00
2023-02-17T03:54:14.856Z,21.10
2023-02-17T03:56:43.809Z,20.87
2023-02-17T03:59:10.725Z,20.70
2023-02-17T04:01:38.169Z,21.60
2023-02-17T04:04:05.126Z,19.23
2023-02-17T04:06:32.450Z,21.37
2023-02-17T04:08:59.300Z,19.40
2023-02-17T04:11:26.398Z,21.73
2023-02-17T04:13:54.895Z,21.60
2023-02-17T04:16:22.060Z,20.43
2023-02-17T04:18:48.912Z,20.90
2023-02-17T04:21:16.109Z,21.30
2023-02-17T04:23:43.023Z,20.80
2023-02-17T04:26:10.218Z,20.70
2023-02-17T04:28:41.415Z,20.30
2023-02-17T04:31:10.263Z,20.20
2023-02-17T04:33:37.977Z,20.93
2023-02-17T04:36:06.315Z,18.23
2023-02-17T04:38:33.904Z,17.63
2023-02-17T04:41:01.527Z,21.17
2023-02-17T04:43:28.895Z,21.00
2023-02-17T04:45:56.148Z,19.97
2023-02-17T04:48:24.928Z,21.23
2023-02-17T04:50:52.460Z,19.00
2023-02-17T04:53:19.527Z,21.07
2023-02-17T04:55:48.994Z,21.57
2023-02-17T04:58:15.859Z,20.83
2023-02-17T05:00:42.954Z,21.97
2023-02-17T05:03:09.750Z,22.33
2023-02-17T05:05:37.874Z,20.60
2023-02-17T05:08:05.093Z,21.83
2023-02-17T05:10:32.288Z,22.80
2023-02-17T05:12:59.112Z,21.70
2023-02-17T05:15:26.173Z,21.50
2023-02-17T05:17:53.022Z,21.60
2023-02-17T05:20:20.380Z,21.17
2023-02-17T05:22:48.544Z,23.27
2023-02-17T05:25:15.866Z,22.43
2023-02-17T05:27:42.756Z,23.47
2023-02-17T05:30:10.338Z,23.47
2023-02-17T05:32:37.198Z,22.33
2023-02-17T05:35:04.588Z,24.50
2023-02-17T05:37:31.455Z,25.77
2023-02-17T05:39:59.830Z,25.33
2023-02-17T05:42:28.812Z,25.03
2023-02-17T05:44:56.440Z,25.60
2023-02-17T05:47:23.757Z,24.70
2023-02-17T05:49:50.732Z,24.77
2023-02-17T05:52:18.375Z,23.57
2023-02-17T05:54:45.513Z,24.63
2023-02-17T05:57:14.328Z,24.57
2023-02-17T05:59:41.524Z,25.27
2023-02-17T06:02:08.338Z,24.87
2023-02-17T06:04:35.509Z,24.83
2023-02-17T06:07:02.450Z,24.23
2023-02-17T06:09:29.748Z,22.13
2023-02-17T06:11:56.502Z,23.13
2023-02-17T06:14:24.651Z,21.63
2023-02-17T06:16:51.486Z,21.93
2023-02-17T06:19:18.304Z,22.23
2023-02-17T06:21:45.123Z,22.07
2023-02-17T06:24:12.357Z,22.33
2023-02-17T06:26:39.156Z,21.83
2023-02-17T06:29:06.638Z,20.60
2023-02-17T06:31:34.885Z,20.53
2023-02-17T06:34:01.909Z,20.03
2023-02-17T06:36:28.658Z,20.97
2023-02-17T06:38:55.760Z,20.60
2023-02-17T06:41:22.614Z,21.53
2023-02-17T06:43:49.766Z,20.70
2023-02-17T06:46:16.636Z,20.27
2023-02-17T06:48:45.083Z,19.83
2023-02-17T06:51:11.995Z,19.23
2023-02-17T06:53:38.900Z,19.60
2023-02-17T06:56:06.668Z,18.83
2023-02-17T06:58:35.693Z,18.80
2023-02-17T07:01:05.008Z,18.70
2023-02-17T07:03:32.962Z,18.20
2023-02-17T07:06:01.216Z,18.07
2023-02-17T07:08:28.369Z,18.93
2023-02-17T07:10:55.625Z,17.20
2023-02-17T07:13:22.776Z,17.80
2023-02-17T07:15:49.600Z,18.40
2023-02-17T07:18:16.919Z,19.07
2023-02-17T07:20:43.737Z,18.20
2023-02-17T07:23:11.884Z,17.43
2023-02-17T07:25:38.689Z,16.87
2023-02-17T07:28:05.594Z,16.70
2023-02-17T07:30:32.510Z,17.47
2023-02-17T07:32:59.392Z,15.53
2023-02-17T07:35:26.285Z,15.70
2023-02-17T07:37:53.858Z,15.33
2023-02-17T07:40:22.161Z,15.57
2023-02-17T07:42:49.233Z,14.73
2023-02-17T07:45:16.181Z,15.93
2023-02-17T07:47:43.679Z,16.87
2023-02-17T07:50:10.823Z,15.43
2023-02-17T07:52:38.018Z,16.10
2023-02-17T07:55:05.539Z,17.27
2023-02-17T07:57:33.755Z,15.83
2023-02-17T08:00:00.536Z,16.73
2023-02-17T08:02:27.645Z,16.63
2023-02-17T08:04:54.593Z,15.57
2023-02-17T08:07:21.367Z,15.40
2023-02-17T08:10:06.890Z,15.07
2023-02-17T08:12:53.584Z,15.60
2023-02-17T08:15:20.609Z,14.10
2023-02-17T08:17:50.992Z,13.63
2023-02-17T08:20:18.316Z,13.23
2023-02-17T08:22:45.193Z,13.37
2023-02-17T08:25:12.417Z,11.10
2023-02-17T08:27:40.571Z,12.53
2023-02-17T08:30:08.564Z,12.50
2023-02-17T08:32:35.382Z,11.73
2023-02-17T08:35:02.608Z,10.90
2023-02-17T08:37:30.760Z,11.63
2023-02-17T08:39:59.334Z,10.53
2023-02-17T08:42:26.665Z,10.30
2023-02-17T08:44:55.567Z,11.30
2023-02-17T08:47:22.360Z,10.10
2023-02-17T08:49:49.302Z,10.70
2023-02-17T08:52:16.261Z,11.13
2023-02-17T08:54:43.527Z,10.23
2023-02-17T08:57:10.370Z,10.43
2023-02-17T08:59:37.193Z,9.43
2023-02-17T09:02:05.845Z,9.10
2023-02-17T09:04:33.214Z,9.37
2023-02-17T09:07:00.147Z,9.50
2023-02-17T09:09:27.614Z,10.27
2023-02-17T09:11:56.230Z,9.67
2023-02-17T09:14:26.719Z,10.30
2023-02-17T09:16:55.113Z,9.77
2023-02-17T09:19:24.284Z,10.23
2023-02-17T09:21:51.148Z,9.53
2023-02-17T09:24:18.627Z,8.90
2023-02-17T09:26:45.679Z,9.83
2023-02-17T09:29:12.909Z,9.70
2023-02-17T09:31:40.036Z,10.20
2023-02-17T09:34:07.510Z,8.80
2023-02-17T09:36:39.524Z,10.03
2023-02-17T09:39:06.769Z,9.90
2023-02-17T09:41:39.249Z,10.10
2023-02-17T09:44:14.152Z,10.77
2023-02-17T09:46:59.713Z,8.10
2023-02-17T09:49:35.010Z,9.73
2023-02-17T09:52:08.881Z,10.17
2023-02-17T09:54:40.834Z,9.43
2023-02-17T09:57:10.975Z,7.63
2023-02-17T09:59:43.659Z,9.10
2023-02-17T10:02:19.261Z,8.80
2023-02-17T10:04:52.167Z,8.83
2023-02-17T10:07:27.529Z,9.00
2023-02-17T10:10:02.744Z,8.67
2023-02-17T10:12:37.252Z,8.50
2023-02-17T10:15:10.148Z,8.80
2023-02-17T10:17:45.565Z,8.30
2023-02-17T10:20:17.003Z,9.27
2023-02-17T10:22:49.940Z,8.70
2023-02-17T10:25:18.881Z,8.50
2023-02-17T10:27:52.076Z,8.70
2023-02-17T10:30:28.014Z,8.53
2023-02-17T10:33:03.337Z,8.67
2023-02-17T10:35:47.000Z,8.50
2023-02-17T10:38:19.198Z,8.67
2023-02-17T10:40:50.207Z,7.87
2023-02-17T10:43:22.535Z,8.40
2023-02-17T10:45:51.565Z,8.90
2023-02-17T10:48:23.100Z,8.17
2023-02-17T10:50:50.657Z,8.60
2023-02-17T10:53:22.546Z,7.90
2023-02-17T10:55:56.236Z,8.60
2023-02-17T10:58:28.909Z,7.70
2023-02-17T11:00:57.532Z,8.33
2023-02-17T11:03:27.286Z,8.53
2023-02-17T11:05:56.829Z,8.83
2023-02-17T11:08:33.056Z,8.63
2023-02-17T11:11:02.765Z,8.80
2023-02-17T11:13:34.635Z,8.93
2023-02-17T11:16:02.374Z,8.23
2023-02-17T11:18:34.758Z,8.93
2023-02-17T11:21:05.890Z,9.50
2023-02-17T11:23:35.925Z,9.90
2023-02-17T11:26:09.824Z,9.73
2023-02-17T11:28:37.280Z,8.20
2023-02-17T11:31:05.089Z,9.23
2023-02-17T11:33:34.995Z,9.33
2023-02-17T11:36:03.213Z,9.00
2023-02-17T11:38:42.844Z,7.93
2023-02-17T11:41:11.398Z,8.20
2023-02-17T11:43:39.769Z,7.53
2023-02-17T12:02:52.075Z,8.00
2023-02-17T12:05:25.161Z,7.33
2023-02-17T12:08:03.879Z,7.43
2023-02-17T12:10:43.237Z,6.73
2023-02-17T12:13:26.675Z,7.10
2023-02-17T12:16:07.441Z,7.30
2023-02-17T12:18:47.996Z,7.03
2023-02-17T12:21:23.322Z,7.67
2023-02-17T12:24:03.884Z,7.90
2023-02-17T12:26:38.041Z,7.20
2023-02-17T12:29:18.778Z,7.20
2023-02-17T12:32:07.553Z,6.77
2023-02-17T12:34:41.786Z,7.17
2023-02-17T12:37:19.179Z,6.90
2023-02-17T12:39:51.744Z,7.13
2023-02-17T12:42:23.488Z,8.40
2023-02-17T12:44:54.564Z,8.87
2023-02-17T12:47:26.979Z,13.63
2023-02-17T12:49:59.409Z,7.60
2023-02-17T12:52:29.950Z,7.13
2023-02-17T12:55:02.033Z,7.67
2023-02-17T12:57:37.589Z,8.23
2023-02-17T13:00:17.708Z,8.50
2023-02-17T13:02:45.316Z,8.47
2023-02-17T13:05:24.846Z,7.73
2023-02-17T13:07:57.192Z,8.57
2023-02-17T13:10:33.648Z,8.10
2023-02-17T13:13:03.912Z,10.40
2023-02-17T13:15:34.603Z,9.10
2023-02-17T13:18:04.058Z,10.23
2023-02-17T13:20:55.966Z,9.67
2023-02-17T13:23:35.306Z,8.43
2023-02-17T13:26:34.553Z,9.90
2023-02-17T13:29:19.761Z,10.80
2023-02-17T13:31:50.542Z,11.17
2023-02-17T13:34:33.491Z,10.83
2023-02-17T13:37:04.047Z,11.10
2023-02-17T13:39:37.170Z,11.03
2023-02-17T13:42:25.200Z,13.73
2023-02-17T13:44:52.098Z,12.63
2023-02-17T13:47:27.790Z,13.13
2023-02-17T13:49:57.011Z,14.07
2023-02-17T13:52:28.498Z,13.73
2023-02-17T13:54:57.468Z,14.27
2023-02-17T13:57:26.749Z,16.00
2023-02-17T14:00:04.284Z,14.50
2023-02-17T14:02:36.300Z,17.93
2023-02-17T14:05:16.081Z,15.03
2023-02-17T14:07:47.722Z,17.53
2023-02-17T14:10:24.629Z,15.63
2023-02-17T14:12:51.952Z,15.37
2023-02-17T14:15:21.581Z,17.37
2023-02-17T14:17:48.488Z,17.43
2023-02-17T14:20:31.255Z,16.53
2023-02-17T14:23:05.315Z,17.47
2023-02-17T14:25:34.973Z,16.13
2023-02-17T14:28:02.385Z,14.07
2023-02-17T14:30:31.985Z,12.80
2023-02-17T14:33:07.156Z,11.57
2023-02-17T14:35:35.528Z,12.50
2023-02-17T14:38:21.331Z,11.87
2023-02-17T14:40:48.687Z,12.70
2023-02-17T14:43:15.788Z,10.93
2023-02-17T14:45:43.080Z,11.90
2023-02-17T14:48:10.116Z,13.07
2023-02-17T14:50:42.516Z,12.13
2023-02-17T14:53:16.182Z,11.50
2023-02-17T14:55:47.277Z,12.97
2023-02-17T14:58:18.755Z,10.03
2023-02-17T15:00:45.612Z,10.70
2023-02-17T15:03:12.450Z,12.30
2023-02-17T15:05:39.465Z,10.70
2023-02-17T15:08:08.656Z,10.03
2023-02-17T15:10:38.535Z,12.83
2023-02-17T15:13:05.813Z,8.97
2023-02-17T15:15:33.095Z,11.23
2023-02-17T15:17:59.980Z,9.67
2023-02-17T15:20:27.018Z,10.10
2023-02-17T15:22:56.341Z,7.10
2023-02-17T15:25:24.627Z,9.20
2023-02-17T15:27:53.085Z,8.73
2023-02-17T15:30:21.299Z,8.30
2023-02-17T15:32:48.708Z,8.53
2023-02-17T15:35:18.328Z,7.07
2023-02-17T15:37:45.278Z,7.47
2023-02-17T15:40:17.646Z,6.60
2023-02-17T15:42:46.079Z,6.60
2023-02-17T15:45:19.242Z,6.23
2023-02-17T15:47:47.139Z,6.93
2023-02-17T15:50:19.222Z,6.40
2023-02-17T15:52:47.497Z,7.00
2023-02-17T15:55:14.970Z,6.60
2023-02-17T15:57:46.168Z,8.70
2023-02-17T16:00:21.938Z,6.67
2023-02-17T16:02:49.121Z,5.90
2023-02-17T16:05:21.820Z,6.30
2023-02-17T16:07:49.197Z,5.83
2023-02-17T16:10:18.815Z,5.20
2023-02-17T16:12:47.165Z,5.83
2023-02-17T16:15:16.578Z,4.83
2023-02-17T16:17:45.678Z,6.07
2023-02-17T16:20:16.911Z,4.70
2023-02-17T16:22:45.031Z,5.47
2023-02-17T16:25:12.769Z,5.53
2023-02-17T16:27:41.063Z,4.40
2023-02-17T16:30:16.203Z,4.13
2023-02-17T16:32:45.326Z,4.73
2023-02-17T16:35:17.007Z,5.53
2023-02-17T16:37:51.954Z,5.00
2023-02-17T16:40:20.532Z,4.23
2023-02-17T16:42:47.351Z,5.00
2023-02-17T16:45:16.768Z,4.80
2023-02-17T16:47:48.122Z,4.47
2023-02-17T16:50:25.051Z,4.40
2023-02-17T16:52:53.526Z,5.10
2023-02-17T16:55:23.257Z,4.67
2023-02-17T16:57:50.948Z,4.93
2023-02-17T17:00:21.562Z,4.80
2023-02-17T17:02:51.549Z,4.63
2023-02-17T17:05:20.146Z,4.07
2023-02-17T17:07:47.349Z,5.93
2023-02-17T17:10:17.220Z,5.40
2023-02-17T17:12:45.545Z,4.67
2023-02-17T17:15:13.337Z,5.93
2023-02-17T17:17:44.064Z,4.63
2023-02-17T17:20:16.447Z,5.30
2023-02-17T17:22:44.153Z,5.27
2023-02-17T17:25:11.111Z,5.80
2023-02-17T17:27:38.003Z,5.30
2023-02-17T17:30:06.610Z,5.53
2023-02-17T17:32:33.585Z,5.47
2023-02-17T17:35:00.883Z,6.23
2023-02-17T17:37:29.152Z,6.13
2023-02-17T17:39:56.015Z,7.17
2023-02-17T17:42:22.938Z,5.80
2023-02-17T17:44:50.095Z,6.50
2023-02-17T17:47:29.465Z,5.70
2023-02-17T17:49:57.185Z,5.47
2023-02-17T17:52:24.212Z,5.83
2023-02-17T17:54:52.454Z,5.40
2023-02-17T17:57:19.158Z,6.07
2023-02-17T17:59:46.405Z,5.60
2023-02-17T18:02:13.215Z,6.30
2023-02-17T18:04:40.064Z,6.53
2023-02-17T18:07:07.067Z,4.83
2023-02-17T18:09:37.701Z,5.37
2023-02-17T18:12:10.928Z,5.63
2023-02-17T18:14:39.899Z,5.93
2023-02-17T18:17:09.061Z,6.13
2023-02-17T18:19:36.035Z,5.80
2023-02-17T18:22:03.002Z,6.90
2023-02-17T18:24:30.192Z,6.80
2023-02-17T18:26:57.240Z,5.77
2023-02-17T18:29:25.634Z,5.93
2023-02-17T18:31:52.500Z,5.43
2023-02-17T18:34:19.487Z,5.80
2023-02-17T18:36:46.410Z,5.67
2023-02-17T18:39:13.542Z,5.23
2023-02-17T18:41:40.422Z,4.50
2023-02-17T18:44:08.079Z,5.27
2023-02-17T18:46:39.792Z,5.13
2023-02-17T18:49:07.268Z,5.70
2023-02-17T18:51:34.570Z,5.50
2023-02-17T18:54:02.183Z,5.57
2023-02-17T18:56:32.435Z,6.87
2023-02-17T18:58:59.705Z,5.37
2023-02-17T19:01:28.530Z,4.90
2023-02-17T19:03:57.440Z,4.47
2023-02-17T19:06:28.678Z,4.10
2023-02-17T19:08:56.234Z,4.50
2023-02-17T19:11:24.004Z,4.20
2023-02-17T19:13:51.456Z,4.43
2023-02-17T19:16:21.589Z,4.33
2023-02-17T19:18:49.040Z,4.63
2023-02-17T19:21:17.880Z,4.30
2023-02-17T19:23:45.344Z,3.93
2023-02-17T19:26:13.461Z,4.20
2023-02-17T19:28:41.182Z,4.13
2023-02-17T19:31:09.131Z,3.27
2023-02-17T19:33:36.281Z,2.37
2023-02-17T19:36:07.280Z,2.40
2023-02-17T19:38:36.154Z,2.37
2023-02-17T19:41:03.502Z,2.90
2023-02-17T19:43:30.812Z,2.77
2023-02-17T19:45:57.732Z,2.17
2023-02-17T19:48:25.140Z,1.90
2023-02-17T19:50:52.429Z,1.97
2023-02-17T19:53:19.404Z,4.03
2023-02-17T19:55:47.686Z,2.07
2023-02-17T19:58:14.798Z,2.70
2023-02-17T20:00:41.738Z,2.43
2023-02-17T20:03:08.725Z,2.10
2023-02-17T20:05:39.066Z,2.30
2023-02-17T20:08:06.146Z,2.40
2023-02-17T20:10:33.783Z,3.53
2023-02-17T20:13:02.391Z,2.83
2023-02-17T20:15:29.167Z,2.73
2023-02-17T20:17:56.506Z,2.40
2023-02-17T20:20:23.421Z,2.83
2023-02-17T20:22:51.319Z,2.33
2023-02-17T20:25:18.377Z,1.93
2023-02-17T20:27:45.502Z,2.53
2023-02-17T20:30:14.394Z,2.30
2023-02-17T20:32:41.334Z,2.53
2023-02-17T20:35:08.476Z,2.20
2023-02-17T20:37:35.785Z,2.47
2023-02-17T20:40:03.980Z,2.43
2023-02-17T20:42:30.915Z,2.50
2023-02-17T20:44:57.863Z,2.40
2023-02-17T20:47:26.050Z,2.77
2023-02-17T20:49:52.850Z,2.73
2023-02-17T20:52:19.686Z,2.70
2023-02-17T20:54:46.469Z,3.10
2023-02-17T20:57:15.282Z,2.63
2023-02-17T20:59:42.206Z,2.23
2023-02-17T21:02:10.442Z,2.00
2023-02-17T21:04:38.589Z,2.47
2023-02-17T21:07:05.602Z,2.37
2023-02-17T21:09:32.411Z,2.47
2023-02-17T21:11:59.623Z,2.47
2023-02-17T21:14:26.490Z,2.70
2023-02-17T21:16:53.698Z,2.00
2023-02-17T21:19:21.034Z,2.37
2023-02-17T21:21:49.830Z,2.03
2023-02-17T21:24:16.715Z,2.17
2023-02-17T21:26:43.911Z,2.13
2023-02-17T21:29:10.680Z,2.10
2023-02-17T21:31:37.993Z,2.87
2023-02-17T21:34:05.682Z,2.20
2023-02-17T21:36:33.291Z,2.30
2023-02-17T21:39:01.459Z,2.27
2023-02-17T21:41:30.617Z,2.57
2023-02-17T21:44:16.415Z,2.33
2023-02-17T21:46:44.580Z,2.00
2023-02-17T21:49:12.266Z,2.53
2023-02-17T21:51:40.403Z,2.03
2023-02-17T21:54:09.644Z,1.80
2023-02-17T21:56:36.899Z,2.67
2023-02-17T21:59:04.697Z,2.83
2023-02-17T22:01:32.166Z,2.23
2023-02-17T22:03:59.129Z,2.13
2023-02-17T22:06:28.604Z,2.07
2023-02-17T22:08:56.383Z,2.73
2023-02-17T22:11:27.041Z,2.20
2023-02-17T22:13:55.195Z,2.07
2023-02-17T22:16:22.566Z,2.47
2023-02-17T22:18:49.582Z,2.33
2023-02-17T22:21:17.086Z,2.43
2023-02-17T22:23:44.999Z,2.30
2023-02-17T22:26:14.847Z,1.50
2023-02-17T22:28:43.453Z,2.47
2023-02-17T22:31:12.763Z,2.03
2023-02-17T22:33:39.794Z,1.90
2023-02-17T22:36:09.771Z,3.00
2023-02-17T22:38:37.393Z,2.20
2023-02-17T22:41:06.768Z,2.33
2023-02-17T22:43:36.224Z,2.07
2023-02-17T22:46:04.848Z,2.40
2023-02-17T22:48:33.422Z,2.60
2023-02-17T22:51:05.824Z,2.03
2023-02-17T22:53:33.782Z,2.43
2023-02-17T22:56:00.708Z,2.40
2023-02-17T22:58:27.705Z,2.30
2023-02-17T23:01:04.575Z,2.67
2023-02-17T23:03:32.103Z,2.10
2023-02-17T23:06:00.278Z,2.10
2023-02-17T23:08:27.825Z,2.00
2023-02-17T23:10:54.697Z,2.30
2023-02-17T23:13:21.884Z,2.70
2023-02-17T23:15:49.562Z,2.17
2023-02-17T23:18:19.433Z,1.60
2023-02-17T23:20:48.258Z,2.30
2023-02-17T23:23:15.666Z,2.90
2023-02-17T23:25:47.424Z,2.00
2023-02-17T23:28:14.294Z,2.43
2023-02-17T23:30:42.333Z,2.70
2023-02-17T23:33:09.297Z,3.03
2023-02-17T23:35:41.189Z,2.23
2023-02-17T23:38:08.578Z,1.60
2023-02-17T23:40:36.297Z,1.87
2023-02-17T23:43:03.331Z,2.30
2023-02-17T23:45:30.568Z,1.97
2023-02-17T23:47:58.116Z,2.03
2023-02-17T23:50:25.690Z,2.00
2023-02-17T23:52:54.120Z,2.40
2023-02-17T23:55:21.737Z,2.37
2023-02-17T23:57:48.920Z,2.37
